Impacts TAF Board INFO
FOR SITUATIONAL AWARENESS. NOT TO BE USED FOR FLIGHT PLANNING PURPOSES.
IDs:

KDCA - Washington/National, VA, US

Issued at 0137 UTC 28 May 2018
Updated at 0138 UTC 28 May 2018
Potential Impact None Slight Moderate High
Time<<29/02Z 29/03Z 29/04Z 29/05Z 29/06Z 29/07Z 29/08Z 29/09Z 29/10Z 29/11Z 29/12Z 29/13Z 29/14Z
Type PRVL PRVL PRVL PRVL
VIS >6 >6 >6 >6
CIG 20 20 20 10
Cover BKN BKN BKN BKN
FltCat MVFR MVFR MVFR MVFR
WX -- -- -- --
WDir 130 130 130 VRB
WSpd 4 4 4 3
WGst -- -- -- --

Raw TAF
KDCA 280137Z 2802/2906 08006KT P6SM OVC009
  FM280700 11004KT P6SM OVC004
  FM281300 07004KT P6SM OVC008
  FM281600 09004KT P6SM OVC010
  FM281900 13004KT P6SM BKN020
  FM290500 VRB03KT P6SM BKN010


METAR Board
Radar Display
Forecast Discussion

FOR SITUATIONAL AWARENESS. NOT TO BE USED FOR FLIGHT PLANNING PURPOSES.